Time;durP1;ratioP1;P1;durP2;ratioP2;P2;SDS_P1;SDS_P2;PMS_P1;PMS_P2;Temp;Humidity;BMP_temperature;BMP_pressure;BME280_temperature;BME280_humidity;BME280_pressure;Samples;Min_cycle;Max_cycle;Signal;HPM_P1;HPM_P2
2024/04/01 00:00:31;;;;;;;0.20;0.08;;;;;;;;;;5058574;28;20051;-77
2024/04/01 00:02:57;;;;;;;0.20;0.10;;;;;;;;;;5057235;28;20041;-78
2024/04/01 00:05:24;;;;;;;0.20;0.10;;;;;;;;;;5061402;28;20071;-78
2024/04/01 00:07:51;;;;;;;0.20;0.00;;;;;;;;;;5064560;28;20055;-78
2024/04/01 00:10:18;;;;;;;0.20;0.10;;;;;;;;;;5061370;28;20044;-78
2024/04/01 00:12:44;;;;;;;0.38;0.30;;;;;;;;;;5062878;28;20021;-78
2024/04/01 00:15:10;;;;;;;0.20;0.10;;;;;;;;;;5066147;28;20067;-79
2024/04/01 00:17:37;;;;;;;0.20;0.20;;;;;;;;;;5045380;28;20032;-77
2024/04/01 00:20:03;;;;;;;0.20;0.10;;;;;;;;;;5060251;28;20080;-78
2024/04/01 00:22:29;;;;;;;0.52;0.50;;;;;;;;;;5050562;28;20048;-80
2024/04/01 00:24:55;;;;;;;0.50;0.50;;;;;;;;;;5042275;28;20037;-79
2024/04/01 00:27:21;;;;;;;0.20;0.10;;;;;;;;;;5061930;28;20048;-79
2024/04/01 00:29:47;;;;;;;0.20;0.10;;;;;;;;;;5044804;28;20029;-78
2024/04/01 00:32:13;;;;;;;0.20;0.10;;;;;;;;;;5057633;28;20081;-78
2024/04/01 00:34:39;;;;;;;0.20;0.10;;;;;;;;;;5064628;28;20093;-78
2024/04/01 00:37:05;;;;;;;0.75;0.43;;;;;;;;;;5062377;28;20033;-78
2024/04/01 00:39:31;;;;;;;0.20;0.10;;;;;;;;;;5061473;28;20040;-79
2024/04/01 00:41:57;;;;;;;0.28;0.20;;;;;;;;;;5062397;28;20044;-78
2024/04/01 00:44:23;;;;;;;0.20;0.10;;;;;;;;;;5064881;28;20058;-78
2024/04/01 00:46:50;;;;;;;0.20;0.05;;;;;;;;;;5063632;28;20126;-79
2024/04/01 00:49:16;;;;;;;0.20;0.20;;;;;;;;;;5066639;28;20032;-77
2024/04/01 00:51:43;;;;;;;0.20;0.10;;;;;;;;;;5061021;28;20033;-76
2024/04/01 00:54:09;;;;;;;0.20;0.20;;;;;;;;;;5062312;28;20029;-75
2024/04/01 00:56:35;;;;;;;0.20;0.15;;;;;;;;;;5064959;28;20026;-76
2024/04/01 00:59:02;;;;;;;0.20;0.10;;;;;;;;;;5065385;28;20085;-76
2024/04/01 01:01:30;;;;;;;0.20;0.15;;;;;;;;;;5067308;28;20029;-76
2024/04/01 01:03:56;;;;;;;0.25;0.10;;;;;;;;;;5066176;28;20026;-77
2024/04/01 01:06:24;;;;;;;0.38;0.22;;;;;;;;;;5067545;28;20044;-77
2024/04/01 01:08:50;;;;;;;0.20;0.17;;;;;;;;;;5066164;28;20078;-76
2024/04/01 01:11:17;;;;;;;0.28;0.25;;;;;;;;;;5070433;28;20293;-77
2024/04/01 01:13:43;;;;;;;1.35;0.47;;;;;;;;;;5065925;28;20075;-78
2024/04/01 01:16:09;;;;;;;0.20;0.00;;;;;;;;;;5069156;28;20040;-77
2024/04/01 01:18:35;;;;;;;0.20;0.10;;;;;;;;;;5064865;28;20083;-77
2024/04/01 01:21:02;;;;;;;0.20;0.10;;;;;;;;;;5067554;28;20029;-77
2024/04/01 01:23:28;;;;;;;0.20;0.10;;;;;;;;;;5056242;28;20060;-78
2024/04/01 01:25:55;;;;;;;1.00;0.30;;;;;;;;;;5068312;28;20178;-78
2024/04/01 01:28:21;;;;;;;0.22;0.17;;;;;;;;;;5067251;28;20357;-78
2024/04/01 01:30:47;;;;;;;0.20;0.10;;;;;;;;;;5068405;28;20089;-77
2024/04/01 01:33:13;;;;;;;0.25;0.20;;;;;;;;;;5069135;28;20041;-77
2024/04/01 01:35:40;;;;;;;0.30;0.28;;;;;;;;;;5073762;28;20043;-77
2024/04/01 01:38:06;;;;;;;0.22;0.13;;;;;;;;;;5068955;28;20096;-77
2024/04/01 01:40:32;;;;;;;0.40;0.30;;;;;;;;;;5064615;28;20053;-77
2024/04/01 01:42:58;;;;;;;0.20;0.10;;;;;;;;;;5068631;28;20052;-77
2024/04/01 01:45:24;;;;;;;0.40;0.20;;;;;;;;;;5070156;28;20045;-77
2024/04/01 01:47:50;;;;;;;0.20;0.10;;;;;;;;;;5066361;28;20085;-77
2024/04/01 01:50:16;;;;;;;0.30;0.13;;;;;;;;;;5062934;28;20025;-77
2024/04/01 01:52:42;;;;;;;0.20;0.10;;;;;;;;;;5067577;28;20032;-77
2024/04/01 01:55:08;;;;;;;0.22;0.15;;;;;;;;;;5064758;28;20041;-78
2024/04/01 01:57:34;;;;;;;0.22;0.22;;;;;;;;;;5067376;28;20052;-77
2024/04/01 02:00:05;;;;;;;1.75;1.08;;;;;;;;;;5066446;28;20084;-78
2024/04/01 02:02:31;;;;;;;1.00;0.50;;;;;;;;;;5065335;28;20045;-77
2024/04/01 02:04:57;;;;;;;0.20;0.00;;;;;;;;;;5065666;28;20243;-78
2024/04/01 02:07:23;;;;;;;0.20;0.10;;;;;;;;;;5060158;28;20919;-77
2024/04/01 02:09:49;;;;;;;0.20;0.10;;;;;;;;;;5067381;28;20047;-78
2024/04/01 02:12:15;;;;;;;0.50;0.28;;;;;;;;;;5055559;28;20047;-77
2024/04/01 02:14:42;;;;;;;0.20;0.20;;;;;;;;;;5064689;28;20125;-78
2024/04/01 02:17:08;;;;;;;0.20;0.13;;;;;;;;;;5064016;28;20022;-78
2024/04/01 02:19:35;;;;;;;0.20;0.10;;;;;;;;;;5066563;28;20164;-78
2024/04/01 02:22:01;;;;;;;0.20;0.20;;;;;;;;;;5063763;28;20110;-77
2024/04/01 02:24:27;;;;;;;1.85;0.20;;;;;;;;;;5064936;28;20041;-77
2024/04/01 02:26:53;;;;;;;0.20;0.10;;;;;;;;;;5062581;28;20040;-77
2024/04/01 02:29:19;;;;;;;0.20;0.10;;;;;;;;;;5069591;28;20151;-77
2024/04/01 02:31:46;;;;;;;0.20;0.10;;;;;;;;;;5062092;28;20041;-77
2024/04/01 02:34:12;;;;;;;0.20;0.00;;;;;;;;;;5067654;28;20033;-77
2024/04/01 02:36:38;;;;;;;0.30;0.20;;;;;;;;;;5070762;28;20025;-78
2024/04/01 02:39:04;;;;;;;0.20;0.10;;;;;;;;;;5064732;28;20068;-77
2024/04/01 02:41:31;;;;;;;0.20;0.08;;;;;;;;;;5061545;28;20088;-77
2024/04/01 02:43:57;;;;;;;0.20;0.10;;;;;;;;;;5050117;28;20052;-77
2024/04/01 02:46:23;;;;;;;0.47;0.47;;;;;;;;;;5065199;28;20037;-77
2024/04/01 02:48:49;;;;;;;0.20;0.10;;;;;;;;;;5066846;28;20056;-77
2024/04/01 02:51:15;;;;;;;0.30;0.30;;;;;;;;;;5061658;28;20021;-78
2024/04/01 02:53:47;;;;;;;0.30;0.30;;;;;;;;;;5071050;28;20079;-78
2024/04/01 02:56:14;;;;;;;0.30;0.20;;;;;;;;;;5062699;28;20089;-77
2024/04/01 02:58:41;;;;;;;0.30;0.30;;;;;;;;;;5063227;28;20097;-78
2024/04/01 03:01:08;;;;;;;0.50;0.30;;;;;;;;;;5081213;28;20337;-77
2024/04/01 03:03:34;;;;;;;0.20;0.10;;;;;;;;;;5067719;28;20020;-77
2024/04/01 03:06:00;;;;;;;0.75;0.40;;;;;;;;;;5061884;28;20053;-77
2024/04/01 03:08:26;;;;;;;2.40;0.38;;;;;;;;;;5065838;28;20079;-78
2024/04/01 03:10:59;;;;;;;0.73;0.52;;;;;;;;;;5084509;28;20475;-78
2024/04/01 03:13:28;;;;;;;0.40;0.10;;;;;;;;;;5059068;28;20037;-77
2024/04/01 03:15:55;;;;;;;0.40;0.20;;;;;;;;;;5064662;28;20027;-77
2024/04/01 03:18:21;;;;;;;0.52;0.50;;;;;;;;;;5066910;28;20025;-78
2024/04/01 03:20:48;;;;;;;0.20;0.00;;;;;;;;;;5067452;28;20052;-77
2024/04/01 03:23:14;;;;;;;0.25;0.13;;;;;;;;;;5068477;28;20053;-77
2024/04/01 03:25:40;;;;;;;0.20;0.10;;;;;;;;;;5068471;28;20049;-77
2024/04/01 03:28:06;;;;;;;0.85;0.57;;;;;;;;;;5067595;28;20036;-77
2024/04/01 03:30:33;;;;;;;0.20;0.20;;;;;;;;;;5066493;28;20025;-77
2024/04/01 03:32:59;;;;;;;0.40;0.28;;;;;;;;;;5062401;28;20028;-77
2024/04/01 03:35:27;;;;;;;0.30;0.22;;;;;;;;;;5064774;28;20080;-77
2024/04/01 03:37:53;;;;;;;0.45;0.22;;;;;;;;;;5066987;28;20067;-77
2024/04/01 03:40:19;;;;;;;0.20;0.10;;;;;;;;;;5065171;28;20065;-77
2024/04/01 03:42:45;;;;;;;0.52;0.52;;;;;;;;;;5063881;28;20030;-78
2024/04/01 03:45:11;;;;;;;0.20;0.15;;;;;;;;;;5061017;28;20021;-77
2024/04/01 03:47:38;;;;;;;1.95;0.90;;;;;;;;;;5066092;28;20075;-77
2024/04/01 03:50:05;;;;;;;0.20;0.17;;;;;;;;;;5066887;28;20013;-77
2024/04/01 03:52:32;;;;;;;0.73;0.32;;;;;;;;;;5068140;28;20115;-77
2024/04/01 03:54:58;;;;;;;0.50;0.50;;;;;;;;;;5066711;28;20053;-77
2024/04/01 03:57:24;;;;;;;0.20;0.00;;;;;;;;;;5051308;28;20157;-77
2024/04/01 03:59:50;;;;;;;0.20;0.10;;;;;;;;;;5061606;28;20049;-77
2024/04/01 04:02:16;;;;;;;0.30;0.30;;;;;;;;;;5067325;28;20045;-77
2024/04/01 04:04:42;;;;;;;0.20;0.10;;;;;;;;;;5069679;28;20087;-77
2024/04/01 04:07:08;;;;;;;0.47;0.30;;;;;;;;;;5063590;28;20030;-77
2024/04/01 04:09:34;;;;;;;0.90;0.75;;;;;;;;;;5065627;28;20029;-77
2024/04/01 04:12:00;;;;;;;0.30;0.20;;;;;;;;;;5064947;28;20052;-77
2024/04/01 04:14:26;;;;;;;0.20;0.20;;;;;;;;;;5058586;28;20063;-77
2024/04/01 04:16:53;;;;;;;0.40;0.38;;;;;;;;;;5066936;28;20037;-77
2024/04/01 04:19:20;;;;;;;0.28;0.25;;;;;;;;;;5071944;28;20045;-77
2024/04/01 04:21:46;;;;;;;0.70;0.70;;;;;;;;;;5067800;28;20036;-77
2024/04/01 04:24:15;;;;;;;0.20;0.10;;;;;;;;;;5065635;28;20033;-77
2024/04/01 04:26:44;;;;;;;0.20;0.10;;;;;;;;;;5068339;28;20033;-77
2024/04/01 04:29:10;;;;;;;0.32;0.32;;;;;;;;;;5069723;28;20034;-77
2024/04/01 04:31:36;;;;;;;0.20;0.10;;;;;;;;;;5068521;28;20029;-77
2024/04/01 04:34:02;;;;;;;0.63;0.63;;;;;;;;;;5067588;28;20044;-78
2024/04/01 04:36:28;;;;;;;0.35;0.35;;;;;;;;;;5071084;28;20036;-79
2024/04/01 04:38:54;;;;;;;0.20;0.10;;;;;;;;;;5069665;28;20025;-79
2024/04/01 04:41:22;;;;;;;0.30;0.28;;;;;;;;;;5069433;28;20180;-79
2024/04/01 04:43:48;;;;;;;0.20;0.10;;;;;;;;;;5069646;28;20048;-79
2024/04/01 04:46:15;;;;;;;1.67;0.55;;;;;;;;;;5071413;28;20033;-79
2024/04/01 04:48:41;;;;;;;0.82;0.82;;;;;;;;;;5065748;28;20076;-79
2024/04/01 04:51:07;;;;;;;0.20;0.10;;;;;;;;;;5062996;28;20051;-80
2024/04/01 04:53:34;;;;;;;0.38;0.38;;;;;;;;;;5061221;28;20045;-80
2024/04/01 04:56:00;;;;;;;0.20;0.15;;;;;;;;;;5063733;28;20082;-79
2024/04/01 04:58:26;;;;;;;0.47;0.47;;;;;;;;;;5066736;28;20037;-79
2024/04/01 05:00:52;;;;;;;0.35;0.15;;;;;;;;;;5064407;28;20041;-79
2024/04/01 05:03:18;;;;;;;0.20;0.20;;;;;;;;;;5060989;28;20028;-79
2024/04/01 05:05:44;;;;;;;0.20;0.10;;;;;;;;;;5065089;28;20079;-79
2024/04/01 05:08:10;;;;;;;0.20;0.10;;;;;;;;;;5066506;28;20053;-79
2024/04/01 05:10:37;;;;;;;0.20;0.10;;;;;;;;;;5062355;28;20060;-78
2024/04/01 05:13:03;;;;;;;0.32;0.32;;;;;;;;;;5065477;28;20153;-78
2024/04/01 05:15:29;;;;;;;0.25;0.20;;;;;;;;;;5066576;28;20070;-79
2024/04/01 05:17:56;;;;;;;0.77;0.63;;;;;;;;;;5066993;28;20040;-80
2024/04/01 05:20:22;;;;;;;0.20;0.10;;;;;;;;;;5066919;28;20072;-80
2024/04/01 05:22:48;;;;;;;0.20;0.13;;;;;;;;;;5067788;28;20048;-79
2024/04/01 05:25:14;;;;;;;0.20;0.10;;;;;;;;;;5066559;28;20041;-79
2024/04/01 05:27:40;;;;;;;0.20;0.10;;;;;;;;;;5067289;28;20518;-79
2024/04/01 05:30:10;;;;;;;0.47;0.40;;;;;;;;;;5065875;28;20056;-80
2024/04/01 05:32:37;;;;;;;0.30;0.30;;;;;;;;;;5067664;28;20047;-79
2024/04/01 05:35:05;;;;;;;2.05;0.20;;;;;;;;;;5067979;28;20021;-79
2024/04/01 05:37:31;;;;;;;0.28;0.20;;;;;;;;;;5068721;28;20048;-78
2024/04/01 05:39:57;;;;;;;0.20;0.10;;;;;;;;;;5067947;28;20104;-76
2024/04/01 05:42:24;;;;;;;0.60;0.60;;;;;;;;;;5067108;28;20039;-77
2024/04/01 05:44:50;;;;;;;0.38;0.38;;;;;;;;;;5068706;28;21188;-78
2024/04/01 05:47:16;;;;;;;0.50;0.30;;;;;;;;;;5069023;28;20017;-78
2024/04/01 05:49:42;;;;;;;0.40;0.40;;;;;;;;;;5069235;28;20104;-78
2024/04/01 05:52:08;;;;;;;0.32;0.20;;;;;;;;;;5068878;28;20045;-78
2024/04/01 05:54:34;;;;;;;0.20;0.10;;;;;;;;;;5068236;28;20046;-78
2024/04/01 05:57:01;;;;;;;0.20;0.20;;;;;;;;;;5069128;28;20041;-78
2024/04/01 05:59:27;;;;;;;0.45;0.40;;;;;;;;;;5068505;28;20041;-78
2024/04/01 06:01:54;;;;;;;0.63;0.20;;;;;;;;;;5065721;28;21004;-78
2024/04/01 06:04:20;;;;;;;0.20;0.10;;;;;;;;;;5059725;28;20053;-79
2024/04/01 06:06:46;;;;;;;0.20;0.17;;;;;;;;;;5053789;28;20040;-79
2024/04/01 06:09:13;;;;;;;0.45;0.30;;;;;;;;;;5050871;28;20041;-79
2024/04/01 06:11:39;;;;;;;0.70;0.32;;;;;;;;;;5040337;28;20083;-79
2024/04/01 06:14:05;;;;;;;0.32;0.30;;;;;;;;;;5049155;28;20037;-79
2024/04/01 06:16:31;;;;;;;0.20;0.10;;;;;;;;;;5051654;28;20041;-79
2024/04/01 06:18:57;;;;;;;0.68;0.63;;;;;;;;;;5052724;28;20033;-79
2024/04/01 06:21:23;;;;;;;0.30;0.28;;;;;;;;;;5051261;28;20059;-81
2024/04/01 06:23:49;;;;;;;0.20;0.10;;;;;;;;;;5053562;28;20068;-79
2024/04/01 06:26:15;;;;;;;0.70;0.35;;;;;;;;;;5049523;28;20044;-79
2024/04/01 06:28:42;;;;;;;0.20;0.10;;;;;;;;;;5049089;28;20036;-79
2024/04/01 06:31:08;;;;;;;0.35;0.20;;;;;;;;;;5048817;28;20033;-79
2024/04/01 06:33:34;;;;;;;0.65;0.60;;;;;;;;;;5047520;28;20157;-79
2024/04/01 06:36:00;;;;;;;0.20;0.10;;;;;;;;;;5051498;28;20053;-79
2024/04/01 06:38:26;;;;;;;0.20;0.10;;;;;;;;;;5057972;28;20065;-79
2024/04/01 06:40:55;;;;;;;0.68;0.68;;;;;;;;;;5052302;28;20041;-79
2024/04/01 06:43:22;;;;;;;0.20;0.10;;;;;;;;;;5050133;28;20037;-79
2024/04/01 06:45:54;;;;;;;0.20;0.20;;;;;;;;;;5052434;28;20040;-78
2024/04/01 06:48:20;;;;;;;0.20;0.20;;;;;;;;;;5054917;28;20067;-79
2024/04/01 06:50:46;;;;;;;0.20;0.10;;;;;;;;;;5055542;28;20115;-78
2024/04/01 06:53:12;;;;;;;0.20;0.10;;;;;;;;;;5056349;28;20116;-78
2024/04/01 06:55:38;;;;;;;0.50;0.43;;;;;;;;;;5051841;28;20056;-79
2024/04/01 06:58:04;;;;;;;0.20;0.10;;;;;;;;;;5052737;28;20040;-79
2024/04/01 07:00:31;;;;;;;0.22;0.03;;;;;;;;;;5048969;28;20044;-78
2024/04/01 07:02:57;;;;;;;0.20;0.10;;;;;;;;;;5056460;28;20059;-79
2024/04/01 07:05:23;;;;;;;0.20;0.03;;;;;;;;;;5046348;28;20032;-79
2024/04/01 07:07:50;;;;;;;0.65;0.57;;;;;;;;;;5047849;28;20040;-79
2024/04/01 07:10:16;;;;;;;2.30;1.10;;;;;;;;;;5051601;28;20080;-79
2024/04/01 07:12:42;;;;;;;0.20;0.20;;;;;;;;;;5051919;28;20092;-78
2024/04/01 07:15:08;;;;;;;0.30;0.30;;;;;;;;;;5053409;28;20095;-79
2024/04/01 07:17:35;;;;;;;0.30;0.30;;;;;;;;;;5052548;28;20079;-79
2024/04/01 07:20:02;;;;;;;0.20;0.10;;;;;;;;;;5051794;28;20037;-79
2024/04/01 07:22:28;;;;;;;0.35;0.35;;;;;;;;;;5052880;28;20045;-78
2024/04/01 07:24:54;;;;;;;0.20;0.10;;;;;;;;;;5050949;28;20068;-78
2024/04/01 07:27:20;;;;;;;0.20;0.10;;;;;;;;;;5055209;28;20910;-78
2024/04/01 07:29:46;;;;;;;0.52;0.40;;;;;;;;;;5054099;28;20041;-79
2024/04/01 07:32:12;;;;;;;0.40;0.40;;;;;;;;;;5055994;28;20081;-79
2024/04/01 07:34:38;;;;;;;0.20;0.10;;;;;;;;;;5053226;28;20037;-79
2024/04/01 07:37:05;;;;;;;0.20;0.10;;;;;;;;;;5052764;28;20068;-79
2024/04/01 07:39:31;;;;;;;0.20;0.20;;;;;;;;;;5048179;28;20033;-79
2024/04/01 07:41:57;;;;;;;0.35;0.25;;;;;;;;;;5053205;28;20521;-78
2024/04/01 07:44:23;;;;;;;0.93;0.80;;;;;;;;;;5054389;28;20056;-79
2024/04/01 07:46:49;;;;;;;0.20;0.20;;;;;;;;;;5053153;28;20561;-79
2024/04/01 07:49:15;;;;;;;0.60;0.60;;;;;;;;;;5058791;28;20068;-79
2024/04/01 07:51:41;;;;;;;0.20;0.10;;;;;;;;;;5051981;28;20049;-79
2024/04/01 07:54:07;;;;;;;0.20;0.10;;;;;;;;;;5059306;28;20075;-78
2024/04/01 07:56:33;;;;;;;0.40;0.32;;;;;;;;;;5051283;28;20068;-79
2024/04/01 07:58:59;;;;;;;0.25;0.22;;;;;;;;;;5063842;28;20055;-79
2024/04/01 08:01:25;;;;;;;0.20;0.10;;;;;;;;;;5063753;28;20045;-78
2024/04/01 08:03:51;;;;;;;1.42;0.28;;;;;;;;;;5060139;28;20040;-79
2024/04/01 08:06:17;;;;;;;0.20;0.10;;;;;;;;;;5056954;28;20044;-79
2024/04/01 08:08:43;;;;;;;0.75;0.65;;;;;;;;;;5058248;28;20033;-78
2024/04/01 08:11:12;;;;;;;4.05;0.63;;;;;;;;;;5055620;28;20069;-79
2024/04/01 08:13:38;;;;;;;0.85;0.55;;;;;;;;;;5054583;28;20139;-79
2024/04/01 08:16:05;;;;;;;0.20;0.10;;;;;;;;;;5051920;28;20076;-80
2024/04/01 08:18:31;;;;;;;0.65;0.52;;;;;;;;;;5053833;28;20508;-78
2024/04/01 08:20:58;;;;;;;0.38;0.38;;;;;;;;;;5052705;28;20037;-79
2024/04/01 08:23:25;;;;;;;0.20;0.05;;;;;;;;;;5040162;28;22528;-79
2024/04/01 08:25:51;;;;;;;0.20;0.10;;;;;;;;;;5055258;28;20425;-79
2024/04/01 08:28:19;;;;;;;0.60;0.40;;;;;;;;;;5046765;28;20037;-78
2024/04/01 08:30:46;;;;;;;0.20;0.20;;;;;;;;;;5053917;28;20116;-79
2024/04/01 08:33:12;;;;;;;0.68;0.25;;;;;;;;;;5052346;28;20036;-81
2024/04/01 08:35:39;;;;;;;1.23;0.60;;;;;;;;;;5050461;28;20117;-79
2024/04/01 08:38:05;;;;;;;0.85;0.68;;;;;;;;;;5056469;28;20051;-80
2024/04/01 08:40:33;;;;;;;0.70;0.28;;;;;;;;;;5058890;28;20105;-79
2024/04/01 08:43:01;;;;;;;0.40;0.38;;;;;;;;;;5054438;28;20049;-80
2024/04/01 08:45:28;;;;;;;0.30;0.28;;;;;;;;;;5051908;28;20047;-79
2024/04/01 08:47:58;;;;;;;0.20;0.20;;;;;;;;;;5052205;28;20132;-79
2024/04/01 08:50:26;;;;;;;0.45;0.30;;;;;;;;;;5044574;28;20159;-80
2024/04/01 08:53:02;;;;;;;0.35;0.35;;;;;;;;;;5055970;28;20045;-80
2024/04/01 08:55:29;;;;;;;0.40;0.30;;;;;;;;;;5053936;28;20033;-80
2024/04/01 08:57:56;;;;;;;0.40;0.40;;;;;;;;;;5060094;28;20053;-81
2024/04/01 09:00:22;;;;;;;0.73;0.73;;;;;;;;;;5053766;28;20053;-80
2024/04/01 09:02:48;;;;;;;0.77;0.55;;;;;;;;;;5054996;28;20614;-80
2024/04/01 09:05:14;;;;;;;0.25;0.20;;;;;;;;;;5059037;28;20063;-79
2024/04/01 09:07:41;;;;;;;0.50;0.40;;;;;;;;;;5059459;28;20037;-80
2024/04/01 09:10:07;;;;;;;0.28;0.28;;;;;;;;;;5061067;28;20098;-79
2024/04/01 09:12:33;;;;;;;0.40;0.40;;;;;;;;;;5064701;28;20194;-79
2024/04/01 09:14:59;;;;;;;0.32;0.25;;;;;;;;;;5060952;28;20043;-79
2024/04/01 09:17:26;;;;;;;0.50;0.50;;;;;;;;;;5045888;28;20064;-78
2024/04/01 09:19:52;;;;;;;0.65;0.57;;;;;;;;;;5055120;28;20045;-79
2024/04/01 09:22:18;;;;;;;0.20;0.17;;;;;;;;;;5059564;28;20032;-79
2024/04/01 09:24:45;;;;;;;0.63;0.40;;;;;;;;;;5055679;28;20052;-78
2024/04/01 09:27:11;;;;;;;0.52;0.40;;;;;;;;;;5062553;28;20131;-79
2024/04/01 09:29:37;;;;;;;0.20;0.20;;;;;;;;;;5039153;28;20053;-78
2024/04/01 09:32:03;;;;;;;0.40;0.30;;;;;;;;;;5053466;28;20107;-80
2024/04/01 09:34:29;;;;;;;0.28;0.28;;;;;;;;;;5045223;28;20048;-79
2024/04/01 09:36:55;;;;;;;0.20;0.13;;;;;;;;;;5049615;28;20068;-80
2024/04/01 09:39:21;;;;;;;0.20;0.20;;;;;;;;;;5045739;28;20033;-80
2024/04/01 09:41:49;;;;;;;0.20;0.17;;;;;;;;;;5048490;28;20030;-79
2024/04/01 09:44:17;;;;;;;0.90;0.40;;;;;;;;;;5051749;28;20516;-80
2024/04/01 09:46:43;;;;;;;0.20;0.10;;;;;;;;;;5028005;28;20459;-79
2024/04/01 09:49:09;;;;;;;0.30;0.25;;;;;;;;;;5034547;28;20048;-80
2024/04/01 09:51:35;;;;;;;0.30;0.30;;;;;;;;;;5048647;28;20045;-80
2024/04/01 09:54:01;;;;;;;0.35;0.35;;;;;;;;;;5052626;28;20048;-80
2024/04/01 09:56:48;;;;;;;0.30;0.30;;;;;;;;;;5038065;28;20033;-78
2024/04/01 09:59:39;;;;;;;0.20;0.20;;;;;;;;;;5052869;28;20055;-79
2024/04/01 10:02:24;;;;;;;0.30;0.30;;;;;;;;;;5032785;28;20040;-80
2024/04/01 10:04:51;;;;;;;1.08;0.70;;;;;;;;;;5039397;28;20052;-80
2024/04/01 10:07:36;;;;;;;0.30;0.28;;;;;;;;;;5050551;28;20049;-79
2024/04/01 10:10:22;;;;;;;0.22;0.15;;;;;;;;;;5046240;28;20155;-79
2024/04/01 10:12:59;;;;;;;0.43;0.40;;;;;;;;;;5046684;28;20052;-79
2024/04/01 10:15:44;;;;;;;0.28;0.25;;;;;;;;;;5043398;28;20037;-80
2024/04/01 10:18:29;;;;;;;0.95;0.35;;;;;;;;;;5042506;28;20041;-78
2024/04/01 10:21:13;;;;;;;0.20;0.13;;;;;;;;;;5049655;28;20033;-81
2024/04/01 10:24:07;;;;;;;0.30;0.30;;;;;;;;;;5036279;28;20152;-80
2024/04/01 10:26:32;;;;;;;;;;;;;;;;;;5033666;28;20488;-80
2024/04/01 10:28:58;;;;;;;0.47;0.47;;;;;;;;;;5031504;28;19928;-80
2024/04/01 10:31:43;;;;;;;0.20;0.20;;;;;;;;;;5047336;28;20045;-81
2024/04/01 10:34:12;;;;;;;0.20;0.10;;;;;;;;;;5039857;28;20032;-80
2024/04/01 10:36:44;;;;;;;0.40;0.40;;;;;;;;;;5035205;28;20048;-82
2024/04/01 10:39:16;;;;;;;0.20;0.20;;;;;;;;;;5033611;28;20032;-82
2024/04/01 10:41:57;;;;;;;0.30;0.30;;;;;;;;;;5051035;28;20500;-81
2024/04/01 10:44:42;;;;;;;0.65;0.55;;;;;;;;;;5028145;28;23145;-82
2024/04/01 10:47:08;;;;;;;0.20;0.13;;;;;;;;;;5031355;28;20127;-82
2024/04/01 10:49:34;;;;;;;0.20;0.10;;;;;;;;;;5044472;28;20075;-80
2024/04/01 10:52:21;;;;;;;0.20;0.10;;;;;;;;;;5045617;28;20045;-81
2024/04/01 10:55:02;;;;;;;0.20;0.10;;;;;;;;;;5044701;28;20094;-82
2024/04/01 10:57:31;;;;;;;7.18;1.35;;;;;;;;;;5026873;28;20033;-80
2024/04/01 11:00:12;;;;;;;0.20;0.10;;;;;;;;;;5055455;28;20033;-82
2024/04/01 11:02:57;;;;;;;0.20;0.10;;;;;;;;;;5023346;28;20029;-81
2024/04/01 11:05:29;;;;;;;0.20;0.10;;;;;;;;;;5041315;28;20123;-81
2024/04/01 11:08:02;;;;;;;0.20;0.10;;;;;;;;;;5025337;28;20048;-81
2024/04/01 11:10:43;;;;;;;0.20;0.20;;;;;;;;;;5028250;28;20064;-81
2024/04/01 11:13:15;;;;;;;0.20;0.13;;;;;;;;;;5039580;28;20041;-84
2024/04/01 11:15:41;;;;;;;0.20;0.20;;;;;;;;;;5022166;28;20041;-81
2024/04/01 11:18:26;;;;;;;0.20;0.00;;;;;;;;;;5039275;28;20087;-81
2024/04/01 11:21:01;;;;;;;0.80;0.63;;;;;;;;;;5020959;28;20044;-81
2024/04/01 11:23:30;;;;;;;0.20;0.15;;;;;;;;;;5029499;28;20520;-82
2024/04/01 11:26:35;;;;;;;0.20;0.17;;;;;;;;;;5044976;28;20041;-82
2024/04/01 11:29:07;;;;;;;0.20;0.03;;;;;;;;;;4971947;28;20038;-83
2024/04/01 11:31:33;;;;;;;0.60;0.32;;;;;;;;;;4954830;28;20076;-81
2024/04/01 11:34:11;;;;;;;0.20;0.10;;;;;;;;;;5007577;28;20049;-82
2024/04/01 11:36:47;;;;;;;0.20;0.20;;;;;;;;;;5039854;28;20049;-82
2024/04/01 11:39:16;;;;;;;0.38;0.38;;;;;;;;;;5039047;28;20038;-82
2024/04/01 11:41:46;;;;;;;1.85;1.27;;;;;;;;;;5032211;28;20464;-80
2024/04/01 11:44:13;;;;;;;0.40;0.40;;;;;;;;;;5039162;28;20491;-79
2024/04/01 11:46:40;;;;;;;0.20;0.10;;;;;;;;;;5044220;28;20152;-82
2024/04/01 11:49:06;;;;;;;0.20;0.20;;;;;;;;;;5023615;28;20052;-80
2024/04/01 11:51:33;;;;;;;0.30;0.20;;;;;;;;;;5041801;28;20459;-81
2024/04/01 11:53:59;;;;;;;0.20;0.10;;;;;;;;;;5025630;28;20033;-81
2024/04/01 11:56:38;;;;;;;0.40;0.30;;;;;;;;;;5029411;28;20096;-81
2024/04/01 11:59:06;;;;;;;0.20;0.10;;;;;;;;;;5029042;28;20150;-82
2024/04/01 12:01:34;;;;;;;0.40;0.25;;;;;;;;;;5055756;28;20292;-80
2024/04/01 12:04:00;;;;;;;0.30;0.30;;;;;;;;;;5036976;28;20051;-80
2024/04/01 12:06:29;;;;;;;0.20;0.10;;;;;;;;;;5027617;28;20041;-80
2024/04/01 12:08:57;;;;;;;0.38;0.30;;;;;;;;;;5039978;28;20092;-81
2024/04/01 12:11:26;;;;;;;0.43;0.40;;;;;;;;;;5027914;28;20059;-81
2024/04/01 12:13:54;;;;;;;1.30;0.60;;;;;;;;;;5041704;28;20259;-80
2024/04/01 12:16:20;;;;;;;0.20;0.10;;;;;;;;;;5040163;28;20451;-83
2024/04/01 12:18:47;;;;;;;0.20;0.10;;;;;;;;;;5022515;28;20033;-82
2024/04/01 12:21:13;;;;;;;0.20;0.10;;;;;;;;;;5035244;28;20102;-81
2024/04/01 12:23:40;;;;;;;0.43;0.38;;;;;;;;;;5036379;28;20045;-82
2024/04/01 12:26:12;;;;;;;0.38;0.20;;;;;;;;;;5054438;28;20041;-82
2024/04/01 12:28:38;;;;;;;;;;;;;;;;;;5039183;28;20155;-81
2024/04/01 12:31:05;;;;;;;0.40;0.35;;;;;;;;;;5022447;28;20007;-84
2024/04/01 12:33:36;;;;;;;0.30;0.28;;;;;;;;;;5026252;28;20037;-82
2024/04/01 12:36:02;;;;;;;0.63;0.47;;;;;;;;;;5034508;28;20038;-82
2024/04/01 12:38:33;;;;;;;0.20;0.20;;;;;;;;;;5041643;28;20048;-83
2024/04/01 12:41:01;;;;;;;0.20;0.10;;;;;;;;;;5040332;28;20490;-83
2024/04/01 12:43:27;;;;;;;0.20;0.10;;;;;;;;;;5031312;28;20040;-83
2024/04/01 12:45:54;;;;;;;0.45;0.38;;;;;;;;;;5058328;28;20608;-82
2024/04/01 12:48:21;;;;;;;0.20;0.10;;;;;;;;;;5045380;28;20041;-81
2024/04/01 12:50:48;;;;;;;0.20;0.13;;;;;;;;;;5054615;28;20038;-84
2024/04/01 12:53:33;;;;;;;0.40;0.30;;;;;;;;;;5045926;28;20040;-83
2024/04/01 12:56:19;;;;;;;0.63;0.63;;;;;;;;;;5029206;28;20887;-83
2024/04/01 12:59:07;;;;;;;0.30;0.30;;;;;;;;;;5033385;28;20048;-85
2024/04/01 13:01:42;;;;;;;0.20;0.13;;;;;;;;;;5029157;28;20033;-85
2024/04/01 13:04:18;;;;;;;0.20;0.10;;;;;;;;;;5024583;28;20048;-83
2024/04/01 13:07:11;;;;;;;1.95;0.65;;;;;;;;;;5046327;28;20108;-82
2024/04/01 13:09:39;;;;;;;0.20;0.10;;;;;;;;;;5046286;28;20040;-86
2024/04/01 13:12:05;;;;;;;0.20;0.10;;;;;;;;;;5029027;28;20359;-81
2024/04/01 13:14:49;;;;;;;0.20;0.10;;;;;;;;;;5042155;28;20037;-82
2024/04/01 13:17:17;;;;;;;0.40;0.30;;;;;;;;;;5058047;28;20043;-84
2024/04/01 13:19:47;;;;;;;0.20;0.10;;;;;;;;;;5045637;28;20048;-83
2024/04/01 13:22:19;;;;;;;0.20;0.10;;;;;;;;;;5037016;28;20401;-83
2024/04/01 13:24:51;;;;;;;0.30;0.20;;;;;;;;;;5024680;28;20092;-82
2024/04/01 13:27:29;;;;;;;0.20;0.10;;;;;;;;;;5039682;28;20044;-82
2024/04/01 13:30:16;;;;;;;0.20;0.10;;;;;;;;;;5037620;28;20051;-83
2024/04/01 13:32:57;;;;;;;0.20;0.10;;;;;;;;;;5026502;28;20044;-78
2024/04/01 13:35:38;;;;;;;0.20;0.00;;;;;;;;;;5046406;28;20059;-80
2024/04/01 13:38:34;;;;;;;0.28;0.17;;;;;;;;;;5047225;28;20037;-84
2024/04/01 13:41:16;;;;;;;0.22;0.13;;;;;;;;;;4984104;28;20538;-83
2024/04/01 13:43:53;;;;;;;0.50;0.20;;;;;;;;;;5044209;28;20543;-84
2024/04/01 13:46:26;;;;;;;0.20;0.05;;;;;;;;;;5045639;28;20071;-81
2024/04/01 13:48:58;;;;;;;0.38;0.20;;;;;;;;;;5037336;28;20029;-80
2024/04/01 13:51:43;;;;;;;0.20;0.10;;;;;;;;;;5039508;28;20059;-81
2024/04/01 13:54:15;;;;;;;0.22;0.20;;;;;;;;;;5026655;28;20516;-80
2024/04/01 13:56:41;;;;;;;0.20;0.00;;;;;;;;;;5040775;28;20040;-81
2024/04/01 13:59:21;;;;;;;0.20;0.10;;;;;;;;;;5039123;28;20041;-79
2024/04/01 14:02:05;;;;;;;0.20;0.10;;;;;;;;;;5038287;28;20040;-81
2024/04/01 14:04:37;;;;;;;0.20;0.10;;;;;;;;;;5025177;28;20096;-83
2024/04/01 14:07:03;;;;;;;0.28;0.03;;;;;;;;;;5024356;28;20547;-81
2024/04/01 14:09:32;;;;;;;0.20;0.10;;;;;;;;;;5039879;28;20132;-82
2024/04/01 14:12:02;;;;;;;0.20;0.10;;;;;;;;;;5034256;28;20205;-82
2024/04/01 14:14:43;;;;;;;0.20;0.00;;;;;;;;;;5041855;28;20121;-81
2024/04/01 14:17:16;;;;;;;0.20;0.20;;;;;;;;;;5037881;28;20477;-80
2024/04/01 14:19:45;;;;;;;0.50;0.20;;;;;;;;;;5021522;28;20040;-81
2024/04/01 14:22:11;;;;;;;0.20;0.00;;;;;;;;;;5026369;28;20037;-82
2024/04/01 14:24:37;;;;;;;0.20;0.10;;;;;;;;;;5040307;28;20045;-82
2024/04/01 14:27:03;;;;;;;0.20;0.10;;;;;;;;;;5038294;28;20424;-80
2024/04/01 14:29:29;;;;;;;0.20;0.03;;;;;;;;;;5037319;28;20489;-83
2024/04/01 14:31:56;;;;;;;0.20;0.15;;;;;;;;;;5035151;28;20074;-82
2024/04/01 14:34:22;;;;;;;0.20;0.10;;;;;;;;;;5023538;28;20041;-81
2024/04/01 14:36:48;;;;;;;0.20;0.10;;;;;;;;;;5037626;28;20132;-81
2024/04/01 14:39:14;;;;;;;0.25;0.22;;;;;;;;;;5035721;28;20041;-83
2024/04/01 14:41:40;;;;;;;0.20;0.10;;;;;;;;;;5040454;28;20504;-82
2024/04/01 14:44:07;;;;;;;0.20;0.10;;;;;;;;;;5025802;28;20037;-84
2024/04/01 14:46:34;;;;;;;0.20;0.10;;;;;;;;;;5028234;28;20041;-82
2024/04/01 14:49:01;;;;;;;0.20;0.10;;;;;;;;;;5038201;28;20059;-82
2024/04/01 14:51:27;;;;;;;0.20;0.00;;;;;;;;;;5039903;28;20135;-82